AAR134 RKSI-RJFF
Flight info
| Callsign | AAR134 |
|---|---|
| Flight time | 0h 53m |
| Altitude | 290 |
| Route | OSPOT2Y OSPOT Y782 TGU Y781 BESNA Y209 SARUP SARUPK |
| Aircraft | A321/M-SDE3FGHIRWY/LB1 |
Departure
| Time | 2026-05-08 07:41 |
|---|---|
| Airport | Incheon International Airport (RKSI) |
Arrival
| Time | 2026-05-08 08:34 |
|---|---|
| Airport | Fukuoka Airport (RJFF) |
| Time | Latitude | Longitude | Altitude | Speed | Heading |
|---|---|---|---|---|---|
| 2026-05-08 07:13 | 37.46348 | 126.43420 | 33 ft | 0 kts | 235° |
| 2026-05-08 07:30 | 37.46354 | 126.43432 | 33 ft | 3 kts | 235° |
| 2026-05-08 07:30 | 37.46366 | 126.43452 | 33 ft | 3 kts | 235° |
| 2026-05-08 07:30 | 37.46378 | 126.43473 | 33 ft | 3 kts | 235° |
| 2026-05-08 07:30 | 37.46387 | 126.43490 | 33 ft | 3 kts | 226° |
| 2026-05-08 07:31 | 37.46399 | 126.43502 | 31 ft | 3 kts | 182° |
| 2026-05-08 07:31 | 37.46417 | 126.43498 | 32 ft | 3 kts | 148° |
| 2026-05-08 07:31 | 37.46426 | 126.43491 | 31 ft | 0 kts | 144° |
| 2026-05-08 07:34 | 37.46421 | 126.43495 | 31 ft | 3 kts | 144° |
| 2026-05-08 07:34 | 37.46374 | 126.43537 | 31 ft | 13 kts | 144° |
| 2026-05-08 07:34 | 37.46296 | 126.43607 | 31 ft | 14 kts | 144° |
| 2026-05-08 07:35 | 37.46210 | 126.43682 | 32 ft | 16 kts | 144° |
| 2026-05-08 07:35 | 37.46148 | 126.43758 | 33 ft | 11 kts | 95° |
| 2026-05-08 07:35 | 37.46166 | 126.43819 | 31 ft | 11 kts | 58° |
| 2026-05-08 07:35 | 37.46252 | 126.43971 | 33 ft | 20 kts | 54° |
| 2026-05-08 07:36 | 37.46335 | 126.44119 | 33 ft | 21 kts | 54° |
| 2026-05-08 07:36 | 37.46395 | 126.44222 | 33 ft | 22 kts | 53° |
| 2026-05-08 07:36 | 37.46509 | 126.44427 | 33 ft | 20 kts | 55° |
| 2026-05-08 07:36 | 37.46557 | 126.44527 | 33 ft | 20 kts | 60° |
| 2026-05-08 07:37 | 37.46547 | 126.44669 | 33 ft | 14 kts | 143° |
| 2026-05-08 07:37 | 37.46486 | 126.44723 | 31 ft | 18 kts | 145° |
| 2026-05-08 07:37 | 37.46318 | 126.44872 | 33 ft | 24 kts | 145° |
| 2026-05-08 07:37 | 37.46223 | 126.44957 | 32 ft | 25 kts | 144° |
| 2026-05-08 07:38 | 37.46077 | 126.45085 | 33 ft | 26 kts | 145° |
| 2026-05-08 07:38 | 37.45927 | 126.45217 | 33 ft | 27 kts | 144° |
| 2026-05-08 07:38 | 37.45774 | 126.45357 | 32 ft | 28 kts | 145° |
| 2026-05-08 07:38 | 37.45614 | 126.45499 | 33 ft | 28 kts | 144° |
| 2026-05-08 07:39 | 37.45456 | 126.45639 | 33 ft | 22 kts | 145° |
| 2026-05-08 07:39 | 37.45374 | 126.45712 | 33 ft | 14 kts | 144° |
| 2026-05-08 07:39 | 37.45296 | 126.45794 | 33 ft | 15 kts | 112° |
| 2026-05-08 07:39 | 37.45333 | 126.45906 | 33 ft | 15 kts | 54° |
| 2026-05-08 07:40 | 37.45394 | 126.46016 | 33 ft | 16 kts | 55° |
| 2026-05-08 07:40 | 37.45487 | 126.46029 | 33 ft | 13 kts | 329° |
| 2026-05-08 07:40 | 37.45562 | 126.45963 | 31 ft | 19 kts | 324° |
| 2026-05-08 07:40 | 37.45872 | 126.45687 | 33 ft | 92 kts | 324° |
| 2026-05-08 07:41 | 37.46570 | 126.45064 | 34 ft | 151 kts | 324° |
| 2026-05-08 07:41 | 37.47505 | 126.44234 | 374 ft | 171 kts | 323° |
| 2026-05-08 07:41 | 37.48506 | 126.43356 | 1054 ft | 177 kts | 325° |
| 2026-05-08 07:41 | 37.49545 | 126.42522 | 1839 ft | 177 kts | 327° |
| 2026-05-08 07:42 | 37.50619 | 126.41660 | 2172 ft | 193 kts | 326° |
| 2026-05-08 07:42 | 37.51823 | 126.40685 | 2403 ft | 216 kts | 326° |
| 2026-05-08 07:42 | 37.53092 | 126.39646 | 3214 ft | 218 kts | 326° |
| 2026-05-08 07:42 | 37.54368 | 126.38590 | 4076 ft | 221 kts | 326° |
| 2026-05-08 07:43 | 37.55664 | 126.37530 | 4936 ft | 223 kts | 330° |
| 2026-05-08 07:43 | 37.57135 | 126.36883 | 5763 ft | 226 kts | 343° |
| 2026-05-08 07:43 | 37.58647 | 126.36355 | 6639 ft | 226 kts | 343° |
| 2026-05-08 07:43 | 37.60170 | 126.35820 | 7477 ft | 227 kts | 343° |
| 2026-05-08 07:44 | 37.61693 | 126.35282 | 8324 ft | 228 kts | 343° |
| 2026-05-08 07:44 | 37.63274 | 126.35185 | 9117 ft | 237 kts | 12° |
| 2026-05-08 07:44 | 37.64717 | 126.36360 | 9639 ft | 268 kts | 44° |
| 2026-05-08 07:44 | 37.65713 | 126.38469 | 10163 ft | 291 kts | 58° |
| 2026-05-08 07:45 | 37.66463 | 126.40970 | 10391 ft | 319 kts | 66° |
| 2026-05-08 07:45 | 37.66782 | 126.43872 | 10590 ft | 353 kts | 88° |
| 2026-05-08 07:45 | 37.66306 | 126.46992 | 11091 ft | 370 kts | 104° |
| 2026-05-08 07:45 | 37.65367 | 126.50060 | 11717 ft | 378 kts | 107° |
| 2026-05-08 07:46 | 37.64332 | 126.53147 | 12338 ft | 388 kts | 114° |
| 2026-05-08 07:46 | 37.62840 | 126.56030 | 12949 ft | 399 kts | 128° |
| 2026-05-08 07:46 | 37.60857 | 126.58532 | 13543 ft | 406 kts | 137° |
| 2026-05-08 07:46 | 37.58752 | 126.60947 | 14121 ft | 413 kts | 137° |
| 2026-05-08 07:47 | 37.56605 | 126.63380 | 14722 ft | 417 kts | 138° |
| 2026-05-08 07:47 | 37.54430 | 126.65834 | 15337 ft | 422 kts | 138° |
| 2026-05-08 07:47 | 37.52233 | 126.68314 | 15959 ft | 426 kts | 139° |
| 2026-05-08 07:47 | 37.50022 | 126.70819 | 16576 ft | 430 kts | 139° |
| 2026-05-08 07:48 | 37.47788 | 126.73361 | 17209 ft | 435 kts | 139° |
| 2026-05-08 07:48 | 37.45535 | 126.75929 | 17833 ft | 439 kts | 139° |
| 2026-05-08 07:48 | 37.43263 | 126.78514 | 18457 ft | 442 kts | 139° |
| 2026-05-08 07:48 | 37.40940 | 126.81082 | 18966 ft | 446 kts | 144° |
| 2026-05-08 07:49 | 37.38462 | 126.83444 | 19519 ft | 449 kts | 146° |
| 2026-05-08 07:49 | 37.35958 | 126.85813 | 20066 ft | 452 kts | 146° |
| 2026-05-08 07:49 | 37.33431 | 126.88204 | 20615 ft | 456 kts | 147° |
| 2026-05-08 07:49 | 37.30881 | 126.90613 | 21125 ft | 460 kts | 147° |
| 2026-05-08 07:50 | 37.28315 | 126.93035 | 21702 ft | 464 kts | 147° |
| 2026-05-08 07:50 | 37.25729 | 126.95480 | 22225 ft | 468 kts | 148° |
| 2026-05-08 07:50 | 37.23113 | 126.97955 | 22726 ft | 472 kts | 148° |
| 2026-05-08 07:50 | 37.20483 | 127.00441 | 23220 ft | 476 kts | 148° |
| 2026-05-08 07:51 | 37.17829 | 127.02950 | 23666 ft | 480 kts | 148° |
| 2026-05-08 07:51 | 37.15155 | 127.05475 | 24051 ft | 483 kts | 149° |
| 2026-05-08 07:51 | 37.12459 | 127.08016 | 24451 ft | 486 kts | 149° |
| 2026-05-08 07:51 | 37.09746 | 127.10569 | 24844 ft | 489 kts | 150° |
| 2026-05-08 07:52 | 37.07017 | 127.13131 | 25243 ft | 492 kts | 150° |
| 2026-05-08 07:52 | 37.04273 | 127.15706 | 25646 ft | 494 kts | 150° |
| 2026-05-08 07:52 | 37.01512 | 127.18300 | 26026 ft | 497 kts | 150° |
| 2026-05-08 07:52 | 36.98777 | 127.20868 | 26417 ft | 499 kts | 151° |
| 2026-05-08 07:53 | 36.95995 | 127.23478 | 26798 ft | 502 kts | 151° |
| 2026-05-08 07:53 | 36.93194 | 127.26104 | 27184 ft | 504 kts | 151° |
| 2026-05-08 07:53 | 36.90384 | 127.28733 | 27574 ft | 506 kts | 152° |
| 2026-05-08 07:53 | 36.87560 | 127.31365 | 27989 ft | 508 kts | 152° |
| 2026-05-08 07:54 | 36.84729 | 127.34014 | 28372 ft | 512 kts | 150° |
| 2026-05-08 07:54 | 36.82046 | 127.37018 | 28702 ft | 523 kts | 143° |
| 2026-05-08 07:54 | 36.79458 | 127.40221 | 28959 ft | 525 kts | 143° |
| 2026-05-08 07:54 | 36.76895 | 127.43399 | 29000 ft | 511 kts | 143° |
| 2026-05-08 07:55 | 36.74396 | 127.46496 | 28997 ft | 504 kts | 144° |
| 2026-05-08 07:55 | 36.69421 | 127.52598 | 29000 ft | 500 kts | 144° |
| 2026-05-08 07:56 | 36.64450 | 127.58655 | 29000 ft | 499 kts | 144° |
| 2026-05-08 07:56 | 36.59488 | 127.64701 | 28991 ft | 499 kts | 144° |
| 2026-05-08 07:57 | 36.54534 | 127.70738 | 28981 ft | 498 kts | 145° |
| 2026-05-08 07:57 | 36.49578 | 127.76770 | 28971 ft | 498 kts | 145° |
| 2026-05-08 07:58 | 36.44618 | 127.82787 | 28967 ft | 498 kts | 145° |
| 2026-05-08 07:58 | 36.39627 | 127.88838 | 28970 ft | 498 kts | 145° |
| 2026-05-08 07:59 | 36.34704 | 127.94788 | 28955 ft | 498 kts | 146° |
| 2026-05-08 07:59 | 36.29670 | 128.00638 | 28936 ft | 486 kts | 155° |
| 2026-05-08 07:59 | 36.26856 | 128.02794 | 28943 ft | 472 kts | 163° |
| 2026-05-08 08:00 | 36.23989 | 128.04780 | 28934 ft | 472 kts | 164° |
| 2026-05-08 08:00 | 36.18245 | 128.08697 | 28923 ft | 471 kts | 165° |
| 2026-05-08 08:01 | 36.12486 | 128.12597 | 28933 ft | 472 kts | 165° |
| 2026-05-08 08:01 | 36.06724 | 128.16497 | 28938 ft | 472 kts | 165° |
| 2026-05-08 08:02 | 36.00965 | 128.20408 | 28961 ft | 472 kts | 165° |
| 2026-05-08 08:02 | 35.95216 | 128.24317 | 28964 ft | 472 kts | 165° |
| 2026-05-08 08:03 | 35.89458 | 128.28218 | 28967 ft | 472 kts | 165° |
| 2026-05-08 08:03 | 35.83708 | 128.32105 | 28970 ft | 471 kts | 166° |
| 2026-05-08 08:04 | 35.77965 | 128.35977 | 28974 ft | 471 kts | 165° |
| 2026-05-08 08:04 | 35.72218 | 128.39845 | 28975 ft | 470 kts | 166° |
| 2026-05-08 08:05 | 35.66490 | 128.43698 | 28976 ft | 469 kts | 165° |
| 2026-05-08 08:05 | 35.60762 | 128.47545 | 28978 ft | 468 kts | 165° |
| 2026-05-08 08:06 | 35.55048 | 128.51368 | 28985 ft | 468 kts | 165° |
| 2026-05-08 08:06 | 35.49337 | 128.55188 | 28987 ft | 467 kts | 165° |
| 2026-05-08 08:07 | 35.43607 | 128.58858 | 28983 ft | 462 kts | 167° |
| 2026-05-08 08:07 | 35.38798 | 128.61681 | 28976 ft | 459 kts | 168° |
| 2026-05-08 08:08 | 35.33007 | 128.65006 | 28987 ft | 459 kts | 168° |
| 2026-05-08 08:08 | 35.27250 | 128.68373 | 28979 ft | 459 kts | 167° |
| 2026-05-08 08:09 | 35.21508 | 128.71772 | 28967 ft | 458 kts | 167° |
| 2026-05-08 08:09 | 35.15779 | 128.75168 | 28968 ft | 456 kts | 167° |
| 2026-05-08 08:10 | 35.10080 | 128.78540 | 28972 ft | 454 kts | 167° |
| 2026-05-08 08:10 | 35.04402 | 128.81893 | 28968 ft | 453 kts | 167° |
| 2026-05-08 08:11 | 34.98804 | 128.85536 | 28976 ft | 462 kts | 161° |
| 2026-05-08 08:11 | 34.93349 | 128.89667 | 28982 ft | 462 kts | 161° |
| 2026-05-08 08:12 | 34.87892 | 128.93787 | 28988 ft | 461 kts | 161° |
| 2026-05-08 08:12 | 34.85194 | 128.95822 | 28861 ft | 452 kts | 161° |
| 2026-05-08 08:12 | 34.82541 | 128.97827 | 28448 ft | 446 kts | 161° |
| 2026-05-08 08:12 | 34.79913 | 128.99805 | 27966 ft | 442 kts | 161° |
| 2026-05-08 08:13 | 34.77300 | 129.01763 | 27476 ft | 440 kts | 161° |
| 2026-05-08 08:13 | 34.74704 | 129.03704 | 26999 ft | 437 kts | 161° |
| 2026-05-08 08:13 | 34.72119 | 129.05636 | 26533 ft | 435 kts | 160° |
| 2026-05-08 08:13 | 34.69551 | 129.07561 | 26104 ft | 433 kts | 160° |
| 2026-05-08 08:14 | 34.66989 | 129.09481 | 25685 ft | 431 kts | 160° |
| 2026-05-08 08:14 | 34.64442 | 129.11387 | 25269 ft | 429 kts | 160° |
| 2026-05-08 08:14 | 34.61902 | 129.13291 | 24861 ft | 427 kts | 160° |
| 2026-05-08 08:14 | 34.59380 | 129.15180 | 24444 ft | 425 kts | 160° |
| 2026-05-08 08:15 | 34.56864 | 129.17059 | 24039 ft | 424 kts | 160° |
| 2026-05-08 08:15 | 34.54357 | 129.18930 | 23631 ft | 422 kts | 159° |
| 2026-05-08 08:15 | 34.51860 | 129.20790 | 23150 ft | 420 kts | 159° |
| 2026-05-08 08:15 | 34.49381 | 129.22632 | 22675 ft | 418 kts | 159° |
| 2026-05-08 08:16 | 34.46913 | 129.24468 | 22190 ft | 415 kts | 159° |
| 2026-05-08 08:16 | 34.44455 | 129.26297 | 21721 ft | 413 kts | 159° |
| 2026-05-08 08:16 | 34.42012 | 129.28116 | 21251 ft | 411 kts | 158° |
| 2026-05-08 08:16 | 34.39587 | 129.29924 | 20792 ft | 409 kts | 158° |
| 2026-05-08 08:17 | 34.37169 | 129.31724 | 20331 ft | 407 kts | 158° |
| 2026-05-08 08:17 | 34.35577 | 129.32907 | 20030 ft | 405 kts | 158° |
| 2026-05-08 08:17 | 34.33176 | 129.34688 | 19593 ft | 403 kts | 157° |
| 2026-05-08 08:17 | 34.30788 | 129.36459 | 19165 ft | 401 kts | 157° |
| 2026-05-08 08:18 | 34.27615 | 129.38814 | 18588 ft | 399 kts | 156° |
| 2026-05-08 08:18 | 34.25261 | 129.40559 | 18143 ft | 397 kts | 156° |
| 2026-05-08 08:18 | 34.23704 | 129.41711 | 17821 ft | 395 kts | 156° |
| 2026-05-08 08:18 | 34.21367 | 129.43440 | 17365 ft | 392 kts | 156° |
| 2026-05-08 08:19 | 34.19050 | 129.45152 | 16931 ft | 388 kts | 155° |
| 2026-05-08 08:19 | 34.16759 | 129.46846 | 16511 ft | 385 kts | 155° |
| 2026-05-08 08:19 | 34.14486 | 129.48525 | 16102 ft | 381 kts | 155° |
| 2026-05-08 08:19 | 34.12233 | 129.50188 | 15686 ft | 378 kts | 154° |
| 2026-05-08 08:20 | 34.10000 | 129.51836 | 15285 ft | 375 kts | 154° |
| 2026-05-08 08:20 | 34.07787 | 129.53467 | 14883 ft | 372 kts | 154° |
| 2026-05-08 08:20 | 34.05588 | 129.55087 | 14503 ft | 368 kts | 154° |
| 2026-05-08 08:20 | 34.03407 | 129.56688 | 14113 ft | 366 kts | 154° |
| 2026-05-08 08:21 | 34.01241 | 129.58276 | 13724 ft | 363 kts | 153° |
| 2026-05-08 08:21 | 33.99092 | 129.59853 | 13296 ft | 360 kts | 153° |
| 2026-05-08 08:21 | 33.96957 | 129.61421 | 12851 ft | 358 kts | 153° |
| 2026-05-08 08:21 | 33.94837 | 129.62978 | 12419 ft | 356 kts | 152° |
| 2026-05-08 08:22 | 33.92733 | 129.64523 | 11992 ft | 354 kts | 152° |
| 2026-05-08 08:22 | 33.90640 | 129.66059 | 11585 ft | 351 kts | 152° |
| 2026-05-08 08:22 | 33.88553 | 129.67589 | 11169 ft | 350 kts | 152° |
| 2026-05-08 08:22 | 33.86542 | 129.69188 | 10987 ft | 343 kts | 142° |
| 2026-05-08 08:23 | 33.84932 | 129.71231 | 11002 ft | 335 kts | 126° |
| 2026-05-08 08:23 | 33.83859 | 129.73702 | 10935 ft | 330 kts | 109° |
| 2026-05-08 08:23 | 33.83082 | 129.76257 | 10764 ft | 322 kts | 108° |
| 2026-05-08 08:23 | 33.82331 | 129.78776 | 10487 ft | 318 kts | 108° |
| 2026-05-08 08:24 | 33.81590 | 129.81271 | 10187 ft | 316 kts | 107° |
| 2026-05-08 08:24 | 33.80856 | 129.83742 | 9889 ft | 313 kts | 107° |
| 2026-05-08 08:24 | 33.80128 | 129.86205 | 9564 ft | 311 kts | 107° |
| 2026-05-08 08:24 | 33.79421 | 129.88594 | 9249 ft | 309 kts | 107° |
| 2026-05-08 08:25 | 33.78695 | 129.91039 | 8819 ft | 305 kts | 107° |
| 2026-05-08 08:25 | 33.77984 | 129.93426 | 8336 ft | 302 kts | 106° |
| 2026-05-08 08:25 | 33.77281 | 129.95787 | 7879 ft | 298 kts | 106° |
| 2026-05-08 08:25 | 33.76586 | 129.98121 | 7424 ft | 295 kts | 105° |
| 2026-05-08 08:26 | 33.75923 | 130.00347 | 6986 ft | 292 kts | 105° |
| 2026-05-08 08:26 | 33.75243 | 130.02624 | 6547 ft | 289 kts | 105° |
| 2026-05-08 08:26 | 33.74568 | 130.04879 | 6091 ft | 285 kts | 105° |
| 2026-05-08 08:26 | 33.73899 | 130.07115 | 5617 ft | 283 kts | 105° |
| 2026-05-08 08:27 | 33.73237 | 130.09329 | 5159 ft | 280 kts | 106° |
| 2026-05-08 08:27 | 33.72580 | 130.11516 | 4687 ft | 278 kts | 107° |
| 2026-05-08 08:27 | 33.71926 | 130.13692 | 4204 ft | 275 kts | 107° |
| 2026-05-08 08:27 | 33.71282 | 130.15844 | 3742 ft | 273 kts | 108° |
| 2026-05-08 08:28 | 33.70619 | 130.17970 | 3270 ft | 271 kts | 109° |
| 2026-05-08 08:28 | 33.69924 | 130.20065 | 2774 ft | 270 kts | 111° |
| 2026-05-08 08:28 | 33.69228 | 130.22151 | 2407 ft | 268 kts | 111° |
| 2026-05-08 08:28 | 33.68542 | 130.24210 | 2160 ft | 263 kts | 111° |
| 2026-05-08 08:29 | 33.67863 | 130.26245 | 1844 ft | 262 kts | 112° |
| 2026-05-08 08:29 | 33.67194 | 130.28259 | 1801 ft | 258 kts | 112° |
| 2026-05-08 08:29 | 33.66548 | 130.30200 | 1799 ft | 243 kts | 115° |
| 2026-05-08 08:29 | 33.65709 | 130.31858 | 1823 ft | 225 kts | 131° |
| 2026-05-08 08:30 | 33.64609 | 130.33153 | 1809 ft | 218 kts | 143° |
| 2026-05-08 08:30 | 33.63485 | 130.34251 | 1784 ft | 199 kts | 143° |
| 2026-05-08 08:30 | 33.61586 | 130.36365 | 1532 ft | 175 kts | 140° |
| 2026-05-08 08:31 | 33.60715 | 130.37358 | 1506 ft | 173 kts | 141° |
| 2026-05-08 08:31 | 33.59844 | 130.38354 | 1514 ft | 172 kts | 141° |
| 2026-05-08 08:31 | 33.58988 | 130.39331 | 1537 ft | 170 kts | 140° |
| 2026-05-08 08:31 | 33.58121 | 130.40254 | 1531 ft | 160 kts | 144° |
| 2026-05-08 08:32 | 33.57254 | 130.41094 | 1425 ft | 159 kts | 144° |
| 2026-05-08 08:32 | 33.56396 | 130.41928 | 1198 ft | 157 kts | 142° |
| 2026-05-08 08:32 | 33.55543 | 130.42744 | 991 ft | 156 kts | 143° |
| 2026-05-08 08:32 | 33.54731 | 130.43633 | 825 ft | 161 kts | 129° |
| 2026-05-08 08:33 | 33.54411 | 130.44878 | 750 ft | 156 kts | 81° |
| 2026-05-08 08:33 | 33.54914 | 130.45941 | 647 ft | 145 kts | 30° |
| 2026-05-08 08:33 | 33.55846 | 130.46273 | 422 ft | 142 kts | 0° |
| 2026-05-08 08:33 | 33.56799 | 130.46247 | 198 ft | 133 kts | 339° |
| 2026-05-08 08:34 | 33.57604 | 130.45739 | 63 ft | 131 kts | 328° |
| 2026-05-08 08:34 | 33.58333 | 130.45242 | 37 ft | 103 kts | 333° |
| 2026-05-08 08:34 | 33.58808 | 130.44922 | 34 ft | 54 kts | 330° |
| 2026-05-08 08:34 | 33.59038 | 130.44759 | 28 ft | 33 kts | 322° |
| 2026-05-08 08:35 | 33.59151 | 130.44605 | 27 ft | 17 kts | 303° |
| 2026-05-08 08:35 | 33.59212 | 130.44490 | 28 ft | 15 kts | 301° |
| 2026-05-08 08:35 | 33.59210 | 130.44380 | 30 ft | 14 kts | 240° |
| 2026-05-08 08:35 | 33.59179 | 130.44313 | 30 ft | 7 kts | 240° |
| 2026-05-08 08:36 | 33.59173 | 130.44306 | 30 ft | 1 kts | 221° |
| 2026-05-08 08:36 | 33.59132 | 130.44323 | 30 ft | 12 kts | 150° |
| 2026-05-08 08:36 | 33.59052 | 130.44377 | 29 ft | 14 kts | 151° |
| 2026-05-08 08:36 | 33.58964 | 130.44435 | 31 ft | 14 kts | 150° |
| 2026-05-08 08:37 | 33.58882 | 130.44489 | 32 ft | 14 kts | 152° |
| 2026-05-08 08:37 | 33.58796 | 130.44547 | 32 ft | 13 kts | 150° |
| 2026-05-08 08:37 | 33.58728 | 130.44593 | 34 ft | 10 kts | 151° |
| 2026-05-08 08:37 | 33.58681 | 130.44571 | 35 ft | 9 kts | 238° |
| 2026-05-08 08:38 | 33.58650 | 130.44507 | 31 ft | 8 kts | 240° |
| 2026-05-08 08:38 | 33.58632 | 130.44467 | 32 ft | 3 kts | 240° |
| 2026-05-08 08:38 | 33.58627 | 130.44457 | 32 ft | 0 kts | 240° |